Time,TemperatureF,DewpointF,PressureIn,WindDirection,WindDirectionDegrees,WindSpeedMPH,WindSpeedGustMPH,Humidity,HourlyPrecipIn,Conditions,Clouds,dailyrainin,SoftwareType,DateUTC
2013-03-28 00:02:00,38.0,30.0,30.07,WSW,256,0.0,0.0,73,0.00,,,0.00,,2013-03-28 07:02:00,
2013-03-28 00:12:00,38.0,30.0,30.07,WSW,256,0.0,0.0,73,0.00,,,0.00,,2013-03-28 07:12:00,
2013-03-28 00:22:00,37.0,29.0,30.07,WSW,257,0.0,0.0,74,0.00,,,0.00,,2013-03-28 07:22:00,
2013-03-28 00:32:00,37.0,30.0,30.07,WSW,257,0.0,0.0,75,0.00,,,0.00,,2013-03-28 07:32:00,
2013-03-28 00:42:00,37.0,30.0,30.07,WSW,257,0.0,0.0,75,0.00,,,0.00,,2013-03-28 07:42:00,
2013-03-28 00:52:00,36.0,29.0,30.07,WSW,257,0.0,0.0,76,0.00,,,0.00,,2013-03-28 07:52:00,
2013-03-28 01:02:00,36.0,29.0,30.07,WSW,257,0.0,0.0,76,0.00,,,0.00,,2013-03-28 08:02:00,
2013-03-28 01:11:00,36.0,29.0,30.07,WSW,257,0.0,0.0,76,0.00,,,0.00,,2013-03-28 08:11:00,
2013-03-28 01:21:00,35.0,29.0,30.07,WSW,257,0.0,0.0,77,0.00,,,0.00,,2013-03-28 08:21:00,
2013-03-28 01:32:00,35.0,29.0,30.07,WSW,257,0.0,0.0,78,0.00,,,0.00,,2013-03-28 08:32:00,
2013-03-28 01:41:00,35.0,29.0,30.07,WSW,257,0.0,0.0,78,0.00,,,0.00,,2013-03-28 08:41:00,
2013-03-28 01:52:00,35.0,29.0,30.07,WSW,257,0.0,1.0,78,0.00,,,0.00,,2013-03-28 08:52:00,
2013-03-28 02:01:00,34.0,28.0,30.07,WSW,257,0.0,1.0,79,0.00,,,0.00,,2013-03-28 09:01:00,
2013-03-28 02:11:00,34.0,28.0,30.07,WSW,257,0.0,1.0,79,0.00,,,0.00,,2013-03-28 09:11:00,
2013-03-28 02:22:00,34.0,28.0,30.07,WSW,257,0.0,0.0,79,0.00,,,0.00,,2013-03-28 09:22:00,
2013-03-28 02:32:00,34.0,28.0,30.07,WSW,257,0.0,0.0,79,0.00,,,0.00,,2013-03-28 09:32:00,
2013-03-28 02:42:00,34.0,28.0,30.07,WSW,257,0.0,0.0,79,0.00,,,0.00,,2013-03-28 09:42:00,
2013-03-28 02:52:00,33.0,28.0,30.06,WSW,257,0.0,0.0,80,0.00,,,0.00,,2013-03-28 09:52:00,
2013-03-28 03:02:00,33.0,28.0,30.06,WSW,257,0.0,1.0,80,0.00,,,0.00,,2013-03-28 10:02:00,
2013-03-28 03:12:00,33.0,28.0,30.06,WSW,257,0.0,1.0,80,0.00,,,0.00,,2013-03-28 10:12:00,
2013-03-28 03:22:00,33.0,28.0,30.06,WSW,257,0.0,0.0,81,0.00,,,0.00,,2013-03-28 10:22:00,
2013-03-28 03:32:00,33.0,28.0,30.06,WSW,257,0.0,0.0,81,0.00,,,0.00,,2013-03-28 10:32:00,
2013-03-28 03:42:00,33.0,28.0,30.06,WSW,257,0.0,0.0,81,0.00,,,0.00,,2013-03-28 10:42:00,
2013-03-28 03:53:00,33.0,28.0,30.06,WSW,257,0.0,0.0,83,0.00,,,0.00,,2013-03-28 10:53:00,
2013-03-28 04:02:00,33.0,28.0,30.06,WSW,257,0.0,0.0,83,0.00,,,0.00,,2013-03-28 11:02:00,
2013-03-28 04:12:00,33.0,28.0,30.06,WSW,257,0.0,0.0,83,0.00,,,0.00,,2013-03-28 11:12:00,
2013-03-28 04:22:00,33.0,28.0,30.06,WSW,257,0.0,0.0,83,0.00,,,0.00,,2013-03-28 11:22:00,
2013-03-28 04:32:00,33.0,28.0,30.06,WSW,257,0.0,0.0,82,0.00,,,0.00,,2013-03-28 11:32:00,
2013-03-28 04:42:00,33.0,28.0,30.06,WSW,257,0.0,0.0,82,0.00,,,0.00,,2013-03-28 11:42:00,
2013-03-28 04:52:00,33.0,28.0,30.06,WSW,257,0.0,0.0,83,0.00,,,0.00,,2013-03-28 11:52:00,
2013-03-28 05:02:00,33.0,28.0,30.06,WSW,257,0.0,0.0,82,0.00,,,0.00,,2013-03-28 12:02:00,
2013-03-28 05:11:00,33.0,28.0,30.06,WSW,257,0.0,0.0,82,0.00,,,0.00,,2013-03-28 12:11:00,
2013-03-28 05:22:00,33.0,28.0,30.06,WSW,257,0.0,0.0,82,0.00,,,0.00,,2013-03-28 12:22:00,
2013-03-28 05:32:00,33.0,28.0,30.06,WSW,257,0.0,0.0,82,0.00,,,0.00,,2013-03-28 12:32:00,
2013-03-28 05:42:00,33.0,28.0,30.06,WSW,257,0.0,0.0,82,0.00,,,0.00,,2013-03-28 12:42:00,
2013-03-28 05:52:00,33.0,28.0,30.06,WSW,257,0.0,0.0,82,0.00,,,0.00,,2013-03-28 12:52:00,
2013-03-28 06:01:00,33.0,28.0,30.06,WSW,257,0.0,0.0,81,0.00,,,0.00,,2013-03-28 13:01:00,
2013-03-28 06:11:00,33.0,28.0,30.06,WSW,257,0.0,0.0,81,0.00,,,0.00,,2013-03-28 13:11:00,
2013-03-28 06:21:00,34.0,28.0,30.06,WSW,257,0.0,0.0,78,0.00,,,0.00,,2013-03-28 13:21:00,
2013-03-28 06:31:00,34.0,27.0,30.06,WSW,257,0.0,0.0,76,0.00,,,0.00,,2013-03-28 13:31:00,
2013-03-28 06:41:00,34.0,27.0,30.06,WSW,257,0.0,0.0,76,0.00,,,0.00,,2013-03-28 13:41:00,
2013-03-28 06:52:00,34.0,26.0,30.07,WSW,257,0.0,0.0,73,0.00,,,0.00,,2013-03-28 13:52:00,
2013-03-28 07:01:00,34.0,25.0,30.06,WSW,257,0.0,0.0,70,0.00,,,0.00,,2013-03-28 14:01:00,
2013-03-28 07:11:00,34.0,25.0,30.06,WSW,257,0.0,0.0,70,0.00,,,0.00,,2013-03-28 14:11:00,
2013-03-28 07:22:00,34.0,25.0,30.07,WSW,257,0.0,0.0,70,0.00,,,0.00,,2013-03-28 14:22:00,
2013-03-28 07:32:00,35.0,26.0,30.07,WSW,257,0.0,0.0,70,0.00,,,0.00,,2013-03-28 14:32:00,
2013-03-28 07:42:00,35.0,26.0,30.07,WSW,257,0.0,0.0,70,0.00,,,0.00,,2013-03-28 14:42:00,
2013-03-28 07:52:00,35.0,26.0,30.08,WSW,257,0.0,0.0,70,0.00,,,0.00,,2013-03-28 14:52:00,
2013-03-28 08:01:00,38.0,28.0,30.08,WSW,257,0.0,0.0,66,0.00,,,0.00,,2013-03-28 15:01:00,
2013-03-28 08:11:00,38.0,28.0,30.08,WSW,257,0.0,0.0,66,0.00,,,0.00,,2013-03-28 15:11:00,
2013-03-28 08:21:00,38.0,28.0,30.08,WSW,257,0.0,0.0,66,0.00,,,0.00,,2013-03-28 15:21:00,
2013-03-28 08:32:00,40.0,29.0,30.09,WSW,257,0.0,0.0,65,0.00,,,0.00,,2013-03-28 15:32:00,
2013-03-28 08:42:00,40.0,29.0,30.09,WSW,257,0.0,0.0,65,0.00,,,0.00,,2013-03-28 15:42:00,
2013-03-28 08:53:00,40.0,29.0,30.09,WSW,257,0.0,2.0,65,0.00,,,0.00,,2013-03-28 15:53:00,
2013-03-28 09:02:00,44.0,30.0,30.10,SW,232,1.0,4.0,58,0.00,,,0.00,,2013-03-28 16:02:00,
2013-03-28 09:12:00,44.0,30.0,30.10,SW,232,1.0,4.0,58,0.00,,,0.00,,2013-03-28 16:12:00,
2013-03-28 09:22:00,45.0,28.0,30.10,SW,232,0.0,1.0,52,0.00,,,0.00,,2013-03-28 16:22:00,
2013-03-28 09:32:00,45.0,28.0,30.10,SW,232,0.0,1.0,52,0.00,,,0.00,,2013-03-28 16:32:00,
2013-03-28 09:41:00,45.0,28.0,30.10,SW,232,0.0,1.0,52,0.00,,,0.00,,2013-03-28 16:41:00,
2013-03-28 09:52:00,48.0,29.0,30.11,SW,234,0.0,4.0,48,0.00,,,0.00,,2013-03-28 16:52:00,
2013-03-28 10:02:00,49.0,29.0,30.11,WSW,241,1.0,5.0,45,0.00,,,0.00,,2013-03-28 17:02:00,
2013-03-28 10:12:00,49.0,29.0,30.11,WSW,241,1.0,5.0,45,0.00,,,0.00,,2013-03-28 17:12:00,
2013-03-28 10:22:00,51.0,30.0,30.11,SW,223,0.0,0.0,44,0.00,,,0.00,,2013-03-28 17:22:00,
2013-03-28 10:31:00,53.0,27.0,30.11,SSW,193,2.0,0.0,36,0.00,,,0.00,,2013-03-28 17:31:00,
2013-03-28 10:42:00,53.0,27.0,30.11,SSW,193,2.0,0.0,36,0.00,,,0.00,,2013-03-28 17:42:00,
2013-03-28 10:52:00,54.0,26.0,30.11,SSW,200,0.0,4.0,34,0.00,,,0.00,,2013-03-28 17:52:00,
2013-03-28 11:02:00,55.0,26.0,30.12,West,261,0.0,0.0,32,0.00,,,0.00,,2013-03-28 18:02:00,
2013-03-28 11:12:00,55.0,26.0,30.12,West,261,0.0,0.0,32,0.00,,,0.00,,2013-03-28 18:12:00,
2013-03-28 11:22:00,55.0,26.0,30.12,West,261,0.0,0.0,32,0.00,,,0.00,,2013-03-28 18:22:00,
2013-03-28 11:31:00,57.0,26.0,30.12,WSW,239,1.0,7.0,30,0.00,,,0.00,,2013-03-28 18:31:00,
2013-03-28 11:42:00,57.0,26.0,30.12,WSW,239,1.0,7.0,30,0.00,,,0.00,,2013-03-28 18:42:00,
2013-03-28 11:52:00,57.0,27.0,30.12,SSW,198,2.0,7.0,31,0.00,,,0.00,,2013-03-28 18:52:00,
2013-03-28 12:02:00,58.0,28.0,30.12,South,186,2.0,7.0,31,0.00,,,0.00,,2013-03-28 19:02:00,
2013-03-28 12:11:00,58.0,28.0,30.12,South,186,2.0,7.0,31,0.00,,,0.00,,2013-03-28 19:11:00,
2013-03-28 12:22:00,57.0,26.0,30.13,SSW,198,2.0,6.0,30,0.00,,,0.00,,2013-03-28 19:22:00,
2013-03-28 12:32:00,57.0,26.0,30.13,SE,145,3.0,10.0,30,0.00,,,0.00,,2013-03-28 19:32:00,
2013-03-28 12:42:00,57.0,26.0,30.13,SE,145,3.0,10.0,30,0.00,,,0.00,,2013-03-28 19:42:00,
2013-03-28 12:52:00,58.0,24.0,30.13,South,191,3.0,9.0,27,0.00,,,0.00,,2013-03-28 19:52:00,
2013-03-28 13:02:00,59.0,26.0,30.13,South,184,2.0,9.0,28,0.00,,,0.00,,2013-03-28 20:02:00,
2013-03-28 13:11:00,59.0,26.0,30.13,South,184,2.0,9.0,28,0.00,,,0.00,,2013-03-28 20:11:00,
2013-03-28 13:22:00,58.0,24.0,30.12,South,175,3.0,11.0,27,0.00,,,0.00,,2013-03-28 20:22:00,
2013-03-28 13:32:00,59.0,25.0,30.12,SSW,208,2.0,10.0,27,0.00,,,0.00,,2013-03-28 20:32:00,
2013-03-28 13:42:00,59.0,25.0,30.12,SSW,208,2.0,10.0,27,0.00,,,0.00,,2013-03-28 20:42:00,
2013-03-28 13:53:00,59.0,25.0,30.12,SSW,195,3.0,11.0,27,0.00,,,0.00,,2013-03-28 20:53:00,
2013-03-28 14:02:00,59.0,25.0,30.12,SSW,195,3.0,11.0,27,0.00,,,0.00,,2013-03-28 21:02:00,
2013-03-28 14:11:00,59.0,25.0,30.12,SSW,195,3.0,11.0,27,0.00,,,0.00,,2013-03-28 21:11:00,
2013-03-28 14:22:00,59.0,25.0,30.12,SSW,192,2.0,10.0,27,0.00,,,0.00,,2013-03-28 21:22:00,
2013-03-28 14:32:00,59.0,26.0,30.11,SW,216,2.0,10.0,28,0.00,,,0.00,,2013-03-28 21:32:00,
2013-03-28 14:43:00,59.0,26.0,30.11,SW,216,2.0,10.0,28,0.00,,,0.00,,2013-03-28 21:43:00,
2013-03-28 14:53:00,59.0,25.0,30.11,SSW,206,3.0,7.0,27,0.00,,,0.00,,2013-03-28 21:53:00,
2013-03-28 15:02:00,59.0,25.0,30.11,South,174,3.0,11.0,27,0.00,,,0.00,,2013-03-28 22:02:00,
2013-03-28 15:12:00,59.0,25.0,30.11,South,174,3.0,11.0,27,0.00,,,0.00,,2013-03-28 22:12:00,
2013-03-28 15:22:00,60.0,26.0,30.10,South,172,4.0,12.0,27,0.00,,,0.00,,2013-03-28 22:22:00,
2013-03-28 15:32:00,60.0,26.0,30.11,SW,227,3.0,12.0,27,0.00,,,0.00,,2013-03-28 22:32:00,
2013-03-28 15:42:00,60.0,26.0,30.11,SW,227,3.0,12.0,27,0.00,,,0.00,,2013-03-28 22:42:00,
2013-03-28 15:52:00,59.0,24.0,30.11,SW,219,5.0,12.0,26,0.00,,,0.00,,2013-03-28 22:52:00,
2013-03-28 16:01:00,59.0,24.0,30.11,SW,226,3.0,12.0,26,0.00,,,0.00,,2013-03-28 23:01:00,
2013-03-28 16:12:00,59.0,24.0,30.11,SW,226,3.0,12.0,26,0.00,,,0.00,,2013-03-28 23:12:00,
2013-03-28 16:21:00,57.0,24.0,30.11,WSW,247,4.0,13.0,28,0.00,,,0.00,,2013-03-28 23:21:00,
2013-03-28 16:31:00,57.0,24.0,30.11,SW,222,3.0,13.0,28,0.00,,,0.00,,2013-03-28 23:31:00,
2013-03-28 16:42:00,57.0,24.0,30.11,SW,222,3.0,13.0,28,0.00,,,0.00,,2013-03-28 23:42:00,
2013-03-28 16:52:00,56.0,26.0,30.11,WSW,240,6.0,12.0,31,0.00,,,0.00,,2013-03-28 23:52:00,
2013-03-28 17:02:00,55.0,25.0,30.11,SSE,161,4.0,15.0,31,0.00,,,0.00,,2013-03-29 00:02:00,
2013-03-28 17:11:00,55.0,25.0,30.11,SSE,161,4.0,15.0,31,0.00,,,0.00,,2013-03-29 00:11:00,
2013-03-28 17:22:00,55.0,27.0,30.11,SW,223,4.0,11.0,34,0.00,,,0.00,,2013-03-29 00:22:00,
2013-03-28 17:32:00,54.0,27.0,30.11,South,169,4.0,10.0,35,0.00,,,0.00,,2013-03-29 00:32:00,
2013-03-28 17:42:00,54.0,27.0,30.11,South,169,4.0,10.0,35,0.00,,,0.00,,2013-03-29 00:42:00,
2013-03-28 17:52:00,52.0,27.0,30.11,SSW,198,3.0,12.0,37,0.00,,,0.00,,2013-03-29 00:52:00,
2013-03-28 18:02:00,52.0,28.0,30.12,SSW,199,2.0,2.0,40,0.00,,,0.00,,2013-03-29 01:02:00,
2013-03-28 18:11:00,52.0,28.0,30.12,SSW,199,2.0,2.0,40,0.00,,,0.00,,2013-03-29 01:11:00,
2013-03-28 18:22:00,50.0,27.0,30.12,SW,226,2.0,7.0,40,0.00,,,0.00,,2013-03-29 01:22:00,
2013-03-28 18:31:00,50.0,27.0,30.12,SSW,200,3.0,9.0,40,0.00,,,0.00,,2013-03-29 01:31:00,
2013-03-28 18:42:00,50.0,27.0,30.12,SSW,200,3.0,9.0,40,0.00,,,0.00,,2013-03-29 01:42:00,
2013-03-28 18:52:00,49.0,32.0,30.13,SW,217,2.0,10.0,51,0.00,,,0.00,,2013-03-29 01:52:00,
2013-03-28 19:02:00,48.0,32.0,30.13,SSW,193,3.0,10.0,53,0.00,,,0.00,,2013-03-29 02:02:00,
2013-03-28 19:11:00,48.0,32.0,30.13,SSW,193,3.0,10.0,53,0.00,,,0.00,,2013-03-29 02:11:00,
2013-03-28 19:21:00,47.0,35.0,30.13,SW,224,1.0,3.0,62,0.00,,,0.00,,2013-03-29 02:21:00,
2013-03-28 19:31:00,46.0,34.0,30.13,SSW,200,1.0,4.0,63,0.00,,,0.00,,2013-03-29 02:31:00,
2013-03-28 19:41:00,46.0,34.0,30.13,SSW,200,1.0,4.0,63,0.00,,,0.00,,2013-03-29 02:41:00,
2013-03-28 19:52:00,46.0,34.0,30.13,SSW,193,0.0,2.0,63,0.00,,,0.00,,2013-03-29 02:52:00,
2013-03-28 20:01:00,45.0,32.0,30.13,SW,222,1.0,3.0,61,0.00,,,0.00,,2013-03-29 03:01:00,
2013-03-28 20:11:00,45.0,32.0,30.13,SW,222,1.0,3.0,61,0.00,,,0.00,,2013-03-29 03:11:00,
2013-03-28 20:21:00,45.0,32.0,30.13,SW,222,0.0,3.0,60,0.00,,,0.00,,2013-03-29 03:21:00,
2013-03-28 20:32:00,45.0,31.0,30.13,SW,222,0.0,0.0,58,0.00,,,0.00,,2013-03-29 03:32:00,
2013-03-28 20:42:00,45.0,31.0,30.13,SW,222,0.0,0.0,58,0.00,,,0.00,,2013-03-29 03:42:00,
2013-03-28 20:53:00,44.0,29.0,30.14,SW,222,0.0,0.0,56,0.00,,,0.00,,2013-03-29 03:53:00,
2013-03-28 21:02:00,43.0,28.0,30.14,SW,222,0.0,0.0,55,0.00,,,0.00,,2013-03-29 04:02:00,
2013-03-28 21:12:00,43.0,28.0,30.14,SW,222,0.0,0.0,55,0.00,,,0.00,,2013-03-29 04:12:00,
2013-03-28 21:22:00,42.0,28.0,30.14,SW,222,0.0,0.0,57,0.00,,,0.00,,2013-03-29 04:22:00,
2013-03-28 21:32:00,42.0,28.0,30.14,SW,222,0.0,0.0,58,0.00,,,0.00,,2013-03-29 04:32:00,
2013-03-28 21:42:00,42.0,28.0,30.14,SW,222,0.0,0.0,58,0.00,,,0.00,,2013-03-29 04:42:00,
2013-03-28 21:52:00,41.0,27.0,30.14,SW,222,0.0,0.0,57,0.00,,,0.00,,2013-03-29 04:52:00,
2013-03-28 22:02:00,41.0,27.0,30.14,SW,222,0.0,0.0,58,0.00,,,0.00,,2013-03-29 05:02:00,
2013-03-28 22:12:00,41.0,27.0,30.14,SW,222,0.0,0.0,58,0.00,,,0.00,,2013-03-29 05:12:00,
2013-03-28 22:22:00,40.0,26.0,30.14,SW,222,0.0,0.0,58,0.00,,,0.00,,2013-03-29 05:22:00,
2013-03-28 22:32:00,40.0,28.0,30.14,SW,222,0.0,0.0,62,0.00,,,0.00,,2013-03-29 05:32:00,
2013-03-28 22:42:00,40.0,28.0,30.14,SW,222,0.0,0.0,62,0.00,,,0.00,,2013-03-29 05:42:00,
2013-03-28 22:52:00,39.0,28.0,30.15,SW,222,0.0,0.0,64,0.00,,,0.00,,2013-03-29 05:52:00,
2013-03-28 23:01:00,38.0,27.0,30.15,SW,222,0.0,0.0,65,0.00,,,0.00,,2013-03-29 06:01:00,
2013-03-28 23:12:00,38.0,27.0,30.15,SW,222,0.0,0.0,65,0.00,,,0.00,,2013-03-29 06:12:00,
2013-03-28 23:22:00,38.0,28.0,30.15,SW,222,0.0,0.0,66,0.00,,,0.00,,2013-03-29 06:22:00,
2013-03-28 23:32:00,37.0,27.0,30.15,SW,222,0.0,1.0,66,0.00,,,0.00,,2013-03-29 06:32:00,
2013-03-28 23:41:00,37.0,27.0,30.15,SW,222,0.0,1.0,66,0.00,,,0.00,,2013-03-29 06:41:00,
2013-03-28 23:52:00,37.0,28.0,30.16,SW,222,0.0,2.0,69,0.00,,,0.00,,2013-03-29 06:52:00,